sensor_id;sensor_type;location;lat;lon;timestamp;temperature;humidity
2825;DHT22;1420;51.324;12.344;2023-08-06T00:01:21;16.80;99.90
2825;DHT22;1420;51.324;12.344;2023-08-06T00:03:48;16.70;99.90
2825;DHT22;1420;51.324;12.344;2023-08-06T00:06:16;16.70;99.90
2825;DHT22;1420;51.324;12.344;2023-08-06T00:08:43;16.60;99.90
2825;DHT22;1420;51.324;12.344;2023-08-06T00:11:10;16.70;99.90
2825;DHT22;1420;51.324;12.344;2023-08-06T00:13:39;16.70;99.90
2825;DHT22;1420;51.324;12.344;2023-08-06T00:16:09;16.60;99.90
2825;DHT22;1420;51.324;12.344;2023-08-06T00:18:35;16.70;99.90
2825;DHT22;1420;51.324;12.344;2023-08-06T00:21:02;16.70;99.90
2825;DHT22;1420;51.324;12.344;2023-08-06T00:23:30;16.80;99.90
2825;DHT22;1420;51.324;12.344;2023-08-06T00:25:58;16.90;99.90
2825;DHT22;1420;51.324;12.344;2023-08-06T00:28:26;16.80;99.90
2825;DHT22;1420;51.324;12.344;2023-08-06T00:30:55;16.60;99.90
2825;DHT22;1420;51.324;12.344;2023-08-06T00:33:23;16.60;99.90
2825;DHT22;1420;51.324;12.344;2023-08-06T00:35:50;16.50;99.90
2825;DHT22;1420;51.324;12.344;2023-08-06T00:38:17;16.50;99.90
2825;DHT22;1420;51.324;12.344;2023-08-06T00:40:44;16.50;99.90
2825;DHT22;1420;51.324;12.344;2023-08-06T00:43:12;16.50;99.90
2825;DHT22;1420;51.324;12.344;2023-08-06T00:45:39;16.60;99.90
2825;DHT22;1420;51.324;12.344;2023-08-06T00:48:07;16.40;99.90
2825;DHT22;1420;51.324;12.344;2023-08-06T00:50:34;16.40;99.90
2825;DHT22;1420;51.324;12.344;2023-08-06T00:53:01;16.40;99.90
2825;DHT22;1420;51.324;12.344;2023-08-06T00:55:28;16.50;99.90
2825;DHT22;1420;51.324;12.344;2023-08-06T00:57:56;16.50;99.90
2825;DHT22;1420;51.324;12.344;2023-08-06T01:00:24;16.40;99.90
2825;DHT22;1420;51.324;12.344;2023-08-06T01:02:53;16.50;99.90
2825;DHT22;1420;51.324;12.344;2023-08-06T01:05:20;16.60;99.90
2825;DHT22;1420;51.324;12.344;2023-08-06T01:08:01;16.90;99.90
2825;DHT22;1420;51.324;12.344;2023-08-06T01:10:30;16.90;99.90
2825;DHT22;1420;51.324;12.344;2023-08-06T01:13:04;16.80;99.90
2825;DHT22;1420;51.324;12.344;2023-08-06T01:15:29;16.80;99.90
2825;DHT22;1420;51.324;12.344;2023-08-06T01:17:55;16.70;99.90
2825;DHT22;1420;51.324;12.344;2023-08-06T01:20:27;16.60;99.90
2825;DHT22;1420;51.324;12.344;2023-08-06T01:22:50;16.80;99.90
2825;DHT22;1420;51.324;12.344;2023-08-06T01:25:17;16.80;99.90
2825;DHT22;1420;51.324;12.344;2023-08-06T01:27:48;16.90;99.90
2825;DHT22;1420;51.324;12.344;2023-08-06T01:30:22;16.90;99.90
2825;DHT22;1420;51.324;12.344;2023-08-06T01:32:49;16.80;99.90
2825;DHT22;1420;51.324;12.344;2023-08-06T01:35:15;16.70;99.90
2825;DHT22;1420;51.324;12.344;2023-08-06T01:37:41;16.70;99.90
2825;DHT22;1420;51.324;12.344;2023-08-06T01:40:10;16.50;99.90
2825;DHT22;1420;51.324;12.344;2023-08-06T01:42:37;16.40;99.90
2825;DHT22;1420;51.324;12.344;2023-08-06T01:45:07;16.30;99.90
2825;DHT22;1420;51.324;12.344;2023-08-06T01:47:34;16.30;99.90
2825;DHT22;1420;51.324;12.344;2023-08-06T01:50:01;16.40;99.90
2825;DHT22;1420;51.324;12.344;2023-08-06T01:52:28;16.40;99.90
2825;DHT22;1420;51.324;12.344;2023-08-06T01:54:55;16.50;99.90
2825;DHT22;1420;51.324;12.344;2023-08-06T01:57:23;16.40;99.90
2825;DHT22;1420;51.324;12.344;2023-08-06T01:59:50;16.50;99.90
2825;DHT22;1420;51.324;12.344;2023-08-06T02:02:17;16.60;99.90
2825;DHT22;1420;51.324;12.344;2023-08-06T02:04:44;16.50;99.90
2825;DHT22;1420;51.324;12.344;2023-08-06T02:07:11;16.50;99.90
2825;DHT22;1420;51.324;12.344;2023-08-06T02:09:39;16.50;99.90
2825;DHT22;1420;51.324;12.344;2023-08-06T02:12:06;16.50;99.90
2825;DHT22;1420;51.324;12.344;2023-08-06T02:14:33;16.50;99.90
2825;DHT22;1420;51.324;12.344;2023-08-06T02:17:01;16.40;99.90
2825;DHT22;1420;51.324;12.344;2023-08-06T02:19:28;16.40;99.90
2825;DHT22;1420;51.324;12.344;2023-08-06T02:21:55;16.40;99.90
2825;DHT22;1420;51.324;12.344;2023-08-06T02:24:22;16.30;99.90
2825;DHT22;1420;51.324;12.344;2023-08-06T02:26:49;16.30;99.90
2825;DHT22;1420;51.324;12.344;2023-08-06T02:29:17;16.50;99.90
2825;DHT22;1420;51.324;12.344;2023-08-06T02:31:44;16.50;99.90
2825;DHT22;1420;51.324;12.344;2023-08-06T02:34:11;16.40;99.90
2825;DHT22;1420;51.324;12.344;2023-08-06T02:36:38;16.40;99.90
2825;DHT22;1420;51.324;12.344;2023-08-06T02:39:05;16.50;99.90
2825;DHT22;1420;51.324;12.344;2023-08-06T02:41:33;16.40;99.90
2825;DHT22;1420;51.324;12.344;2023-08-06T02:44:00;16.40;99.90
2825;DHT22;1420;51.324;12.344;2023-08-06T02:46:27;16.50;99.90
2825;DHT22;1420;51.324;12.344;2023-08-06T02:48:54;16.40;99.90
2825;DHT22;1420;51.324;12.344;2023-08-06T02:51:21;16.20;99.90
2825;DHT22;1420;51.324;12.344;2023-08-06T02:53:49;16.20;99.90
2825;DHT22;1420;51.324;12.344;2023-08-06T02:56:16;16.20;99.90
2825;DHT22;1420;51.324;12.344;2023-08-06T02:58:43;16.30;99.90
2825;DHT22;1420;51.324;12.344;2023-08-06T03:01:10;16.40;99.90
2825;DHT22;1420;51.324;12.344;2023-08-06T03:03:37;16.30;99.90
2825;DHT22;1420;51.324;12.344;2023-08-06T03:06:05;16.20;99.90
2825;DHT22;1420;51.324;12.344;2023-08-06T03:08:33;16.20;99.90
2825;DHT22;1420;51.324;12.344;2023-08-06T03:11:01;16.20;99.90
2825;DHT22;1420;51.324;12.344;2023-08-06T03:13:29;16.20;99.90
2825;DHT22;1420;51.324;12.344;2023-08-06T03:15:58;16.20;99.90
2825;DHT22;1420;51.324;12.344;2023-08-06T03:18:25;16.20;99.90
2825;DHT22;1420;51.324;12.344;2023-08-06T03:20:52;16.30;99.90
2825;DHT22;1420;51.324;12.344;2023-08-06T03:23:19;16.20;99.90
2825;DHT22;1420;51.324;12.344;2023-08-06T03:25:47;16.30;99.90
2825;DHT22;1420;51.324;12.344;2023-08-06T03:28:15;16.20;99.90
2825;DHT22;1420;51.324;12.344;2023-08-06T03:30:43;16.20;99.90
2825;DHT22;1420;51.324;12.344;2023-08-06T03:33:11;16.10;99.90
2825;DHT22;1420;51.324;12.344;2023-08-06T03:35:39;16.10;99.90
2825;DHT22;1420;51.324;12.344;2023-08-06T03:38:06;16.00;99.90
2825;DHT22;1420;51.324;12.344;2023-08-06T03:40:34;16.10;99.90
2825;DHT22;1420;51.324;12.344;2023-08-06T03:43:02;16.00;99.90
2825;DHT22;1420;51.324;12.344;2023-08-06T03:45:30;16.10;99.90
2825;DHT22;1420;51.324;12.344;2023-08-06T03:47:58;16.00;99.90
2825;DHT22;1420;51.324;12.344;2023-08-06T03:50:26;16.10;99.90
2825;DHT22;1420;51.324;12.344;2023-08-06T03:52:54;16.10;99.90
2825;DHT22;1420;51.324;12.344;2023-08-06T03:55:22;16.10;99.90
2825;DHT22;1420;51.324;12.344;2023-08-06T03:57:49;16.60;99.90
2825;DHT22;1420;51.324;12.344;2023-08-06T04:00:17;16.60;99.90
2825;DHT22;1420;51.324;12.344;2023-08-06T04:02:45;16.60;99.90
2825;DHT22;1420;51.324;12.344;2023-08-06T04:05:12;16.40;99.90
2825;DHT22;1420;51.324;12.344;2023-08-06T04:07:39;16.20;99.90
2825;DHT22;1420;51.324;12.344;2023-08-06T04:10:06;16.20;99.90
2825;DHT22;1420;51.324;12.344;2023-08-06T04:12:34;16.50;99.90
2825;DHT22;1420;51.324;12.344;2023-08-06T04:15:01;16.50;99.90
2825;DHT22;1420;51.324;12.344;2023-08-06T04:17:29;16.50;99.90
2825;DHT22;1420;51.324;12.344;2023-08-06T04:19:57;16.30;99.90
2825;DHT22;1420;51.324;12.344;2023-08-06T04:22:24;16.30;99.90
2825;DHT22;1420;51.324;12.344;2023-08-06T04:24:51;16.40;99.90
2825;DHT22;1420;51.324;12.344;2023-08-06T04:27:19;16.10;99.90
2825;DHT22;1420;51.324;12.344;2023-08-06T04:29:47;16.40;99.90
2825;DHT22;1420;51.324;12.344;2023-08-06T04:32:15;16.70;99.90
2825;DHT22;1420;51.324;12.344;2023-08-06T04:34:43;16.50;99.90
2825;DHT22;1420;51.324;12.344;2023-08-06T04:37:11;16.50;99.90
2825;DHT22;1420;51.324;12.344;2023-08-06T04:39:38;16.50;99.90
2825;DHT22;1420;51.324;12.344;2023-08-06T04:42:06;16.30;99.90
2825;DHT22;1420;51.324;12.344;2023-08-06T04:44:33;16.20;99.90
2825;DHT22;1420;51.324;12.344;2023-08-06T04:47:00;16.40;99.90
2825;DHT22;1420;51.324;12.344;2023-08-06T04:49:27;16.30;99.90
2825;DHT22;1420;51.324;12.344;2023-08-06T04:51:55;16.30;99.90
2825;DHT22;1420;51.324;12.344;2023-08-06T04:54:22;16.10;99.90
2825;DHT22;1420;51.324;12.344;2023-08-06T04:56:49;16.20;99.90
2825;DHT22;1420;51.324;12.344;2023-08-06T04:59:16;16.60;99.90
2825;DHT22;1420;51.324;12.344;2023-08-06T05:01:44;16.30;99.90
2825;DHT22;1420;51.324;12.344;2023-08-06T05:04:11;16.20;99.90
2825;DHT22;1420;51.324;12.344;2023-08-06T05:06:39;16.20;99.90
2825;DHT22;1420;51.324;12.344;2023-08-06T05:09:06;16.20;99.90
2825;DHT22;1420;51.324;12.344;2023-08-06T05:11:33;16.20;99.90
2825;DHT22;1420;51.324;12.344;2023-08-06T05:14:00;16.20;99.90
2825;DHT22;1420;51.324;12.344;2023-08-06T05:16:27;16.40;99.90
2825;DHT22;1420;51.324;12.344;2023-08-06T05:18:55;16.40;99.90
2825;DHT22;1420;51.324;12.344;2023-08-06T05:21:22;16.40;99.90
2825;DHT22;1420;51.324;12.344;2023-08-06T05:23:49;16.50;99.90
2825;DHT22;1420;51.324;12.344;2023-08-06T05:26:16;16.40;99.90
2825;DHT22;1420;51.324;12.344;2023-08-06T05:28:44;16.30;99.90
2825;DHT22;1420;51.324;12.344;2023-08-06T05:31:11;16.40;99.90
2825;DHT22;1420;51.324;12.344;2023-08-06T05:33:38;16.60;99.90
2825;DHT22;1420;51.324;12.344;2023-08-06T05:36:05;16.60;99.90
2825;DHT22;1420;51.324;12.344;2023-08-06T05:38:32;16.80;99.90
2825;DHT22;1420;51.324;12.344;2023-08-06T05:40:59;16.90;99.90
2825;DHT22;1420;51.324;12.344;2023-08-06T05:43:27;16.90;99.90
2825;DHT22;1420;51.324;12.344;2023-08-06T05:45:54;16.90;99.90
2825;DHT22;1420;51.324;12.344;2023-08-06T05:48:21;16.80;99.90
2825;DHT22;1420;51.324;12.344;2023-08-06T05:50:48;16.80;99.90
2825;DHT22;1420;51.324;12.344;2023-08-06T05:53:16;16.80;99.90
2825;DHT22;1420;51.324;12.344;2023-08-06T05:55:44;17.00;99.90
2825;DHT22;1420;51.324;12.344;2023-08-06T05:58:11;16.90;99.90
2825;DHT22;1420;51.324;12.344;2023-08-06T06:00:38;16.80;99.90
2825;DHT22;1420;51.324;12.344;2023-08-06T06:03:05;16.80;99.90
2825;DHT22;1420;51.324;12.344;2023-08-06T06:05:32;17.00;99.90
2825;DHT22;1420;51.324;12.344;2023-08-06T06:07:59;17.00;99.90
2825;DHT22;1420;51.324;12.344;2023-08-06T06:10:27;17.00;99.90
2825;DHT22;1420;51.324;12.344;2023-08-06T06:12:54;17.10;99.90
2825;DHT22;1420;51.324;12.344;2023-08-06T06:15:21;17.30;99.90
2825;DHT22;1420;51.324;12.344;2023-08-06T06:17:48;17.30;99.90
2825;DHT22;1420;51.324;12.344;2023-08-06T06:20:15;17.30;99.90
2825;DHT22;1420;51.324;12.344;2023-08-06T06:22:43;17.40;99.90
2825;DHT22;1420;51.324;12.344;2023-08-06T06:25:10;17.40;99.90
2825;DHT22;1420;51.324;12.344;2023-08-06T06:27:37;17.30;99.90
2825;DHT22;1420;51.324;12.344;2023-08-06T06:30:05;17.20;99.90
2825;DHT22;1420;51.324;12.344;2023-08-06T06:32:32;17.20;99.90
2825;DHT22;1420;51.324;12.344;2023-08-06T06:35:00;17.50;99.90
2825;DHT22;1420;51.324;12.344;2023-08-06T06:37:27;17.80;99.90
2825;DHT22;1420;51.324;12.344;2023-08-06T06:39:54;17.60;99.90
2825;DHT22;1420;51.324;12.344;2023-08-06T06:42:22;17.40;99.90
2825;DHT22;1420;51.324;12.344;2023-08-06T06:44:50;17.70;99.90
2825;DHT22;1420;51.324;12.344;2023-08-06T06:47:17;17.70;99.90
2825;DHT22;1420;51.324;12.344;2023-08-06T06:49:45;18.00;99.90
2825;DHT22;1420;51.324;12.344;2023-08-06T06:52:12;17.80;99.90
2825;DHT22;1420;51.324;12.344;2023-08-06T06:54:39;17.90;99.90
2825;DHT22;1420;51.324;12.344;2023-08-06T06:57:06;18.00;99.90
2825;DHT22;1420;51.324;12.344;2023-08-06T06:59:33;17.90;99.90
2825;DHT22;1420;51.324;12.344;2023-08-06T07:02:01;18.00;99.90
2825;DHT22;1420;51.324;12.344;2023-08-06T07:04:28;18.00;99.90
2825;DHT22;1420;51.324;12.344;2023-08-06T07:06:55;18.10;99.90
2825;DHT22;1420;51.324;12.344;2023-08-06T07:09:22;18.10;99.90
2825;DHT22;1420;51.324;12.344;2023-08-06T07:11:49;17.80;99.90
2825;DHT22;1420;51.324;12.344;2023-08-06T07:14:17;17.70;99.90
2825;DHT22;1420;51.324;12.344;2023-08-06T07:16:44;17.70;99.90
2825;DHT22;1420;51.324;12.344;2023-08-06T07:19:11;17.60;99.90
2825;DHT22;1420;51.324;12.344;2023-08-06T07:21:40;18.40;99.90
2825;DHT22;1420;51.324;12.344;2023-08-06T07:24:07;18.30;99.90
2825;DHT22;1420;51.324;12.344;2023-08-06T07:26:35;18.20;99.90
2825;DHT22;1420;51.324;12.344;2023-08-06T07:29:02;18.20;99.90
2825;DHT22;1420;51.324;12.344;2023-08-06T07:31:29;18.20;99.90
2825;DHT22;1420;51.324;12.344;2023-08-06T07:33:57;18.40;99.90
2825;DHT22;1420;51.324;12.344;2023-08-06T07:36:25;18.40;99.90
2825;DHT22;1420;51.324;12.344;2023-08-06T07:38:53;18.70;99.90
2825;DHT22;1420;51.324;12.344;2023-08-06T07:41:21;18.70;99.90
2825;DHT22;1420;51.324;12.344;2023-08-06T07:43:47;18.60;99.90
2825;DHT22;1420;51.324;12.344;2023-08-06T07:46:16;18.50;99.90
2825;DHT22;1420;51.324;12.344;2023-08-06T07:48:43;18.40;99.90
2825;DHT22;1420;51.324;12.344;2023-08-06T07:51:11;18.30;99.90
2825;DHT22;1420;51.324;12.344;2023-08-06T07:53:39;18.30;99.90
2825;DHT22;1420;51.324;12.344;2023-08-06T07:56:07;18.20;99.90
2825;DHT22;1420;51.324;12.344;2023-08-06T07:58:35;18.20;99.90
2825;DHT22;1420;51.324;12.344;2023-08-06T08:01:03;18.30;99.90
2825;DHT22;1420;51.324;12.344;2023-08-06T08:03:31;18.20;99.90
2825;DHT22;1420;51.324;12.344;2023-08-06T08:05:59;18.30;99.90
2825;DHT22;1420;51.324;12.344;2023-08-06T08:08:27;18.40;99.90
2825;DHT22;1420;51.324;12.344;2023-08-06T08:10:55;18.50;99.90
2825;DHT22;1420;51.324;12.344;2023-08-06T08:13:22;18.50;99.90
2825;DHT22;1420;51.324;12.344;2023-08-06T08:15:49;18.60;99.90
2825;DHT22;1420;51.324;12.344;2023-08-06T08:18:17;18.50;99.90
2825;DHT22;1420;51.324;12.344;2023-08-06T08:20:44;18.30;99.90
2825;DHT22;1420;51.324;12.344;2023-08-06T08:23:11;18.40;99.90
2825;DHT22;1420;51.324;12.344;2023-08-06T08:25:38;18.50;99.90
2825;DHT22;1420;51.324;12.344;2023-08-06T08:28:06;18.40;99.90
2825;DHT22;1420;51.324;12.344;2023-08-06T08:30:33;18.50;99.90
2825;DHT22;1420;51.324;12.344;2023-08-06T08:33:00;18.60;99.90
2825;DHT22;1420;51.324;12.344;2023-08-06T08:35:28;19.10;99.90
2825;DHT22;1420;51.324;12.344;2023-08-06T08:37:56;19.20;99.90
2825;DHT22;1420;51.324;12.344;2023-08-06T08:40:26;19.20;99.90
2825;DHT22;1420;51.324;12.344;2023-08-06T08:42:52;19.10;99.90
2825;DHT22;1420;51.324;12.344;2023-08-06T08:45:19;19.40;99.90
2825;DHT22;1420;51.324;12.344;2023-08-06T08:47:46;19.50;99.90
2825;DHT22;1420;51.324;12.344;2023-08-06T08:50:13;19.70;99.90
2825;DHT22;1420;51.324;12.344;2023-08-06T08:52:40;19.80;99.90
2825;DHT22;1420;51.324;12.344;2023-08-06T08:55:08;20.00;99.90
2825;DHT22;1420;51.324;12.344;2023-08-06T08:57:35;20.30;99.90
2825;DHT22;1420;51.324;12.344;2023-08-06T09:00:03;20.10;99.90
2825;DHT22;1420;51.324;12.344;2023-08-06T09:02:30;20.60;99.90
2825;DHT22;1420;51.324;12.344;2023-08-06T09:04:58;20.80;99.90
2825;DHT22;1420;51.324;12.344;2023-08-06T09:07:26;20.90;99.90
2825;DHT22;1420;51.324;12.344;2023-08-06T09:09:53;20.90;99.90
2825;DHT22;1420;51.324;12.344;2023-08-06T09:12:22;21.20;99.90
2825;DHT22;1420;51.324;12.344;2023-08-06T09:14:49;21.10;99.90
2825;DHT22;1420;51.324;12.344;2023-08-06T09:17:16;21.50;99.90
2825;DHT22;1420;51.324;12.344;2023-08-06T09:19:44;21.70;99.90
2825;DHT22;1420;51.324;12.344;2023-08-06T09:22:11;21.80;99.90
2825;DHT22;1420;51.324;12.344;2023-08-06T09:24:38;22.00;99.90
2825;DHT22;1420;51.324;12.344;2023-08-06T09:27:06;21.90;99.90
2825;DHT22;1420;51.324;12.344;2023-08-06T09:29:32;22.10;99.90
2825;DHT22;1420;51.324;12.344;2023-08-06T09:32:01;21.60;99.90
2825;DHT22;1420;51.324;12.344;2023-08-06T09:34:29;21.50;99.90
2825;DHT22;1420;51.324;12.344;2023-08-06T09:36:56;21.40;99.90
2825;DHT22;1420;51.324;12.344;2023-08-06T09:39:29;21.30;99.90
2825;DHT22;1420;51.324;12.344;2023-08-06T09:42:00;21.30;99.90
2825;DHT22;1420;51.324;12.344;2023-08-06T09:44:30;21.00;99.90
2825;DHT22;1420;51.324;12.344;2023-08-06T09:46:56;21.30;99.90
2825;DHT22;1420;51.324;12.344;2023-08-06T09:49:27;21.70;99.90
2825;DHT22;1420;51.324;12.344;2023-08-06T09:51:54;21.60;99.90
2825;DHT22;1420;51.324;12.344;2023-08-06T09:54:22;21.80;99.90
2825;DHT22;1420;51.324;12.344;2023-08-06T09:56:49;21.80;99.90
2825;DHT22;1420;51.324;12.344;2023-08-06T09:59:16;21.90;99.90
2825;DHT22;1420;51.324;12.344;2023-08-06T10:01:43;21.50;99.90
2825;DHT22;1420;51.324;12.344;2023-08-06T10:04:12;21.80;99.90
2825;DHT22;1420;51.324;12.344;2023-08-06T10:06:38;21.80;99.90
2825;DHT22;1420;51.324;12.344;2023-08-06T10:09:06;21.60;99.90
2825;DHT22;1420;51.324;12.344;2023-08-06T10:11:33;22.10;99.90
2825;DHT22;1420;51.324;12.344;2023-08-06T10:14:34;21.80;99.00
2825;DHT22;1420;51.324;12.344;2023-08-06T10:16:44;21.80;99.00
2825;DHT22;1420;51.324;12.344;2023-08-06T10:19:11;22.00;99.90
2825;DHT22;1420;51.324;12.344;2023-08-06T10:21:38;22.10;99.90
2825;DHT22;1420;51.324;12.344;2023-08-06T10:24:07;22.00;99.50
2825;DHT22;1420;51.324;12.344;2023-08-06T10:26:37;21.90;99.60
2825;DHT22;1420;51.324;12.344;2023-08-06T10:31:58;22.30;99.90
2825;DHT22;1420;51.324;12.344;2023-08-06T10:34:32;22.20;99.10
2825;DHT22;1420;51.324;12.344;2023-08-06T10:36:54;22.20;98.60
2825;DHT22;1420;51.324;12.344;2023-08-06T10:39:20;22.10;98.30
2825;DHT22;1420;51.324;12.344;2023-08-06T10:41:48;22.60;96.70
2825;DHT22;1420;51.324;12.344;2023-08-06T10:44:16;22.50;96.60
2825;DHT22;1420;51.324;12.344;2023-08-06T10:46:43;22.60;96.80
2825;DHT22;1420;51.324;12.344;2023-08-06T10:49:10;22.90;95.60
2825;DHT22;1420;51.324;12.344;2023-08-06T10:51:38;22.70;93.90
2825;DHT22;1420;51.324;12.344;2023-08-06T10:54:06;22.80;94.20
2825;DHT22;1420;51.324;12.344;2023-08-06T10:56:39;22.80;94.20
2825;DHT22;1420;51.324;12.344;2023-08-06T10:59:00;22.40;95.10
2825;DHT22;1420;51.324;12.344;2023-08-06T11:01:29;22.80;95.50
2825;DHT22;1420;51.324;12.344;2023-08-06T11:04:00;23.00;92.90
2825;DHT22;1420;51.324;12.344;2023-08-06T11:06:24;23.00;93.90
2825;DHT22;1420;51.324;12.344;2023-08-06T11:08:52;22.50;94.00
2825;DHT22;1420;51.324;12.344;2023-08-06T11:11:19;22.90;93.00
2825;DHT22;1420;51.324;12.344;2023-08-06T11:13:47;22.80;92.80
2825;DHT22;1420;51.324;12.344;2023-08-06T11:16:15;23.20;93.00
2825;DHT22;1420;51.324;12.344;2023-08-06T11:18:42;23.30;93.00
2825;DHT22;1420;51.324;12.344;2023-08-06T11:21:09;23.40;92.50
2825;DHT22;1420;51.324;12.344;2023-08-06T11:23:36;23.50;92.70
2825;DHT22;1420;51.324;12.344;2023-08-06T11:26:03;23.60;92.60
2825;DHT22;1420;51.324;12.344;2023-08-06T11:28:30;23.30;92.30
2825;DHT22;1420;51.324;12.344;2023-08-06T11:30:59;22.80;89.60
2825;DHT22;1420;51.324;12.344;2023-08-06T11:33:26;22.80;89.60
2825;DHT22;1420;51.324;12.344;2023-08-06T11:35:54;22.80;90.50
2825;DHT22;1420;51.324;12.344;2023-08-06T11:38:21;22.60;90.90
2825;DHT22;1420;51.324;12.344;2023-08-06T11:40:49;22.70;90.00
2825;DHT22;1420;51.324;12.344;2023-08-06T11:43:15;23.00;90.10
2825;DHT22;1420;51.324;12.344;2023-08-06T11:45:43;23.00;90.20
2825;DHT22;1420;51.324;12.344;2023-08-06T11:48:11;22.60;91.20
2825;DHT22;1420;51.324;12.344;2023-08-06T11:50:39;22.50;91.20
2825;DHT22;1420;51.324;12.344;2023-08-06T11:53:06;22.50;90.40
2825;DHT22;1420;51.324;12.344;2023-08-06T11:55:33;22.80;90.10
2825;DHT22;1420;51.324;12.344;2023-08-06T11:58:03;23.10;84.70
2825;DHT22;1420;51.324;12.344;2023-08-06T12:00:31;23.10;85.00
2825;DHT22;1420;51.324;12.344;2023-08-06T12:02:58;23.00;85.20
2825;DHT22;1420;51.324;12.344;2023-08-06T12:05:29;22.90;85.40
2825;DHT22;1420;51.324;12.344;2023-08-06T12:07:57;23.00;84.80
2825;DHT22;1420;51.324;12.344;2023-08-06T12:10:25;23.40;83.20
2825;DHT22;1420;51.324;12.344;2023-08-06T12:12:51;23.30;83.00
2825;DHT22;1420;51.324;12.344;2023-08-06T12:15:19;23.60;82.30
2825;DHT22;1420;51.324;12.344;2023-08-06T12:17:47;23.40;81.50
2825;DHT22;1420;51.324;12.344;2023-08-06T12:20:15;23.50;81.00
2825;DHT22;1420;51.324;12.344;2023-08-06T12:22:42;23.50;81.00
2825;DHT22;1420;51.324;12.344;2023-08-06T12:25:10;23.80;76.30
2825;DHT22;1420;51.324;12.344;2023-08-06T12:27:38;23.80;76.20
2825;DHT22;1420;51.324;12.344;2023-08-06T12:30:05;24.00;71.60
2825;DHT22;1420;51.324;12.344;2023-08-06T12:32:33;23.90;72.20
2825;DHT22;1420;51.324;12.344;2023-08-06T12:35:01;23.90;73.40
2825;DHT22;1420;51.324;12.344;2023-08-06T12:37:29;23.80;73.20
2825;DHT22;1420;51.324;12.344;2023-08-06T12:39:56;24.30;70.80
2825;DHT22;1420;51.324;12.344;2023-08-06T12:42:23;24.00;69.70
2825;DHT22;1420;51.324;12.344;2023-08-06T12:44:52;24.00;71.40
2825;DHT22;1420;51.324;12.344;2023-08-06T12:47:19;23.90;71.20
2825;DHT22;1420;51.324;12.344;2023-08-06T12:49:46;23.70;70.70
2825;DHT22;1420;51.324;12.344;2023-08-06T12:52:13;23.70;72.50
2825;DHT22;1420;51.324;12.344;2023-08-06T12:54:41;23.50;72.50
2825;DHT22;1420;51.324;12.344;2023-08-06T12:57:09;23.30;73.20
2825;DHT22;1420;51.324;12.344;2023-08-06T12:59:36;23.30;73.20
2825;DHT22;1420;51.324;12.344;2023-08-06T13:02:04;23.20;76.10
2825;DHT22;1420;51.324;12.344;2023-08-06T13:04:31;23.20;75.30
2825;DHT22;1420;51.324;12.344;2023-08-06T13:06:58;22.60;76.80
2825;DHT22;1420;51.324;12.344;2023-08-06T13:09:25;22.40;80.70
2825;DHT22;1420;51.324;12.344;2023-08-06T13:11:52;22.20;86.10
2825;DHT22;1420;51.324;12.344;2023-08-06T13:14:20;22.30;87.00
2825;DHT22;1420;51.324;12.344;2023-08-06T13:16:47;22.40;90.30
2825;DHT22;1420;51.324;12.344;2023-08-06T13:19:14;22.50;85.40
2825;DHT22;1420;51.324;12.344;2023-08-06T13:21:59;22.80;85.40
2825;DHT22;1420;51.324;12.344;2023-08-06T13:24:26;22.90;81.60
2825;DHT22;1420;51.324;12.344;2023-08-06T13:26:54;22.90;81.20
2825;DHT22;1420;51.324;12.344;2023-08-06T13:29:21;22.90;81.10
2825;DHT22;1420;51.324;12.344;2023-08-06T13:31:48;23.30;72.20
2825;DHT22;1420;51.324;12.344;2023-08-06T13:34:15;23.10;72.20
2825;DHT22;1420;51.324;12.344;2023-08-06T13:36:43;23.30;68.60
2825;DHT22;1420;51.324;12.344;2023-08-06T13:39:11;23.60;66.30
2825;DHT22;1420;51.324;12.344;2023-08-06T13:41:39;23.60;66.20
2825;DHT22;1420;51.324;12.344;2023-08-06T13:44:06;24.20;67.80
2825;DHT22;1420;51.324;12.344;2023-08-06T13:46:33;24.30;65.30
2825;DHT22;1420;51.324;12.344;2023-08-06T13:49:02;24.00;66.20
2825;DHT22;1420;51.324;12.344;2023-08-06T13:51:30;23.90;66.00
2825;DHT22;1420;51.324;12.344;2023-08-06T13:53:57;23.50;67.50
2825;DHT22;1420;51.324;12.344;2023-08-06T13:56:24;23.40;67.40
2825;DHT22;1420;51.324;12.344;2023-08-06T13:58:52;23.60;69.20
2825;DHT22;1420;51.324;12.344;2023-08-06T14:01:19;23.80;68.10
2825;DHT22;1420;51.324;12.344;2023-08-06T14:03:46;23.40;67.30
2825;DHT22;1420;51.324;12.344;2023-08-06T14:06:14;23.20;67.20
2825;DHT22;1420;51.324;12.344;2023-08-06T14:08:42;23.00;70.10
2825;DHT22;1420;51.324;12.344;2023-08-06T14:11:09;23.00;70.00
2825;DHT22;1420;51.324;12.344;2023-08-06T14:13:36;23.30;67.90
2825;DHT22;1420;51.324;12.344;2023-08-06T14:16:04;22.90;67.50
2825;DHT22;1420;51.324;12.344;2023-08-06T14:18:32;23.00;68.60
2825;DHT22;1420;51.324;12.344;2023-08-06T14:20:59;23.00;68.60
2825;DHT22;1420;51.324;12.344;2023-08-06T14:23:26;23.20;64.80
2825;DHT22;1420;51.324;12.344;2023-08-06T14:25:53;23.20;64.20
2825;DHT22;1420;51.324;12.344;2023-08-06T14:28:21;23.50;62.50
2825;DHT22;1420;51.324;12.344;2023-08-06T14:30:49;23.30;61.70
2825;DHT22;1420;51.324;12.344;2023-08-06T14:33:16;23.30;61.80
2825;DHT22;1420;51.324;12.344;2023-08-06T14:35:44;23.50;63.00
2825;DHT22;1420;51.324;12.344;2023-08-06T14:38:11;23.70;60.20
2825;DHT22;1420;51.324;12.344;2023-08-06T14:40:39;24.20;60.30
2825;DHT22;1420;51.324;12.344;2023-08-06T14:43:06;24.20;60.10
2825;DHT22;1420;51.324;12.344;2023-08-06T14:45:33;24.50;58.10
2825;DHT22;1420;51.324;12.344;2023-08-06T14:48:00;24.60;57.40
2825;DHT22;1420;51.324;12.344;2023-08-06T14:50:28;24.60;56.30
2825;DHT22;1420;51.324;12.344;2023-08-06T14:52:55;24.60;56.70
2825;DHT22;1420;51.324;12.344;2023-08-06T14:55:24;24.10;56.20
2825;DHT22;1420;51.324;12.344;2023-08-06T14:57:50;23.70;56.50
2825;DHT22;1420;51.324;12.344;2023-08-06T15:00:18;23.80;57.90
2825;DHT22;1420;51.324;12.344;2023-08-06T15:02:46;24.20;56.50
2825;DHT22;1420;51.324;12.344;2023-08-06T15:05:13;24.30;56.50
2825;DHT22;1420;51.324;12.344;2023-08-06T15:07:41;24.20;56.30
2825;DHT22;1420;51.324;12.344;2023-08-06T15:10:08;23.90;57.50
2825;DHT22;1420;51.324;12.344;2023-08-06T15:12:35;23.50;57.60
2825;DHT22;1420;51.324;12.344;2023-08-06T15:15:03;23.30;58.70
2825;DHT22;1420;51.324;12.344;2023-08-06T15:17:31;23.40;58.30
2825;DHT22;1420;51.324;12.344;2023-08-06T15:19:59;23.30;59.00
2825;DHT22;1420;51.324;12.344;2023-08-06T15:22:26;23.20;58.90
2825;DHT22;1420;51.324;12.344;2023-08-06T15:24:53;23.20;60.50
2825;DHT22;1420;51.324;12.344;2023-08-06T15:27:20;23.10;59.70
2825;DHT22;1420;51.324;12.344;2023-08-06T15:29:48;23.00;59.40
2825;DHT22;1420;51.324;12.344;2023-08-06T15:32:15;23.20;58.30
2825;DHT22;1420;51.324;12.344;2023-08-06T15:34:42;23.10;59.00
2825;DHT22;1420;51.324;12.344;2023-08-06T15:37:10;23.60;57.20
2825;DHT22;1420;51.324;12.344;2023-08-06T15:39:37;23.60;57.30
2825;DHT22;1420;51.324;12.344;2023-08-06T15:42:05;23.60;56.60
2825;DHT22;1420;51.324;12.344;2023-08-06T15:44:32;23.70;58.10
2825;DHT22;1420;51.324;12.344;2023-08-06T15:47:00;23.60;58.60
2825;DHT22;1420;51.324;12.344;2023-08-06T15:49:27;23.70;56.60